Cabano, Canada
Current Conditions -  °F | °C
As of 1:53 PM on Saturday 25 Oct 2014 (Local Time) from KFVE Reporting Station
Light Rain Light Rain  
Wind Chill: 41°   Ceiling: 1500
Heat Index: 41°   Visibility: 10mi
Dew Point: 36°   Wind: 0mph
Humidity: 82%   Direction: NA
Pressure: 29.56"   Gusts: NA
Location:  47.68°N, 68.88°W
Report Text: KFVE 251753Z AUTO 00000KT 10SM -RA OVC015 05/02 A2956 RMK AO2 RAB1656 SLP017 P0001 60001 T00500022 10061 20039 58014
Loading
Personal Weather Stations






























Interactive Weather Map
Tropical Storm Tracking
New forecast layout! Learn more

10-Day Weather Forecast

Advertisements
Track Severe Weather on mobile